Time;durP1;ratioP1;P1;durP2;ratioP2;P2;SDS_P1;SDS_P2;PMS_P1;PMS_P2;Temp;Humidity;BMP_temperature;BMP_pressure;BME280_temperature;BME280_humidity;BME280_pressure;Samples;Min_cycle;Max_cycle;Signal;HPM_P1;HPM_P2
2021/12/02 00:00:08;;;;;;;9.10;2.30;;;3.80;99.90;;;;;;4993228;28;20042;-92
2021/12/02 00:02:37;;;;;;;10.35;2.90;;;3.80;99.90;;;;;;4986691;28;20110;-91
2021/12/02 00:05:19;;;;;;;10.68;2.33;;;3.70;99.90;;;;;;5007595;28;20030;-87
2021/12/02 00:07:47;;;;;;;9.40;1.92;;;3.70;99.90;;;;;;4990721;28;20030;-89
2021/12/02 00:13:05;;;;;;;14.88;2.58;;;3.70;99.90;;;;;;5036416;28;20061;-88
2021/12/02 00:15:46;;;;;;;9.88;2.40;;;3.60;99.90;;;;;;5044650;28;20045;-92
2021/12/02 00:21:02;;;;;;;9.20;2.25;;;3.70;99.90;;;;;;5031913;28;20124;-89
2021/12/02 00:21:27;;;;;;;16.67;3.40;;;3.70;99.90;;;;;;5047224;28;20053;-87
2021/12/02 00:24:36;;;;;;;8.15;2.00;;;3.80;99.90;;;;;;5044068;23;20537;-88
2021/12/02 00:27:59;;;;;;;7.50;1.60;;;3.80;99.90;;;;;;5087806;22;21172;-89
2021/12/02 00:30:28;;;;;;;4.28;1.50;;;3.90;99.90;;;;;;5072702;22;20137;-88
2021/12/02 00:32:56;;;;;;;4.47;1.25;;;3.90;99.90;;;;;;5024886;28;20042;-92
2021/12/02 00:35:23;;;;;;;6.53;1.58;;;3.90;99.90;;;;;;5012521;28;20030;-90
2021/12/02 00:37:51;;;;;;;9.05;1.63;;;3.80;99.90;;;;;;5045618;28;20033;-90
2021/12/02 00:40:18;;;;;;;3.20;1.10;;;3.80;99.90;;;;;;5046459;28;20044;-90
2021/12/02 00:42:46;;;;;;;4.75;1.45;;;3.80;99.90;;;;;;5029835;28;20055;-89
2021/12/02 00:45:13;;;;;;;4.72;1.40;;;3.70;99.90;;;;;;5027753;28;20068;-90
2021/12/02 00:47:38;;;;;;;6.97;1.42;;;3.70;99.90;;;;;;5028890;28;20033;-87
2021/12/02 00:50:05;;;;;;;11.63;1.77;;;3.70;99.90;;;;;;5029088;28;20092;-87
2021/12/02 00:52:31;;;;;;;8.18;1.45;;;3.80;99.90;;;;;;5027432;28;20084;-91
2021/12/02 00:54:59;;;;;;;13.07;1.77;;;3.90;99.90;;;;;;5029558;28;20033;-89
2021/12/02 00:57:31;;;;;;;8.43;1.48;;;4.00;99.90;;;;;;5016071;28;20025;-90
2021/12/02 01:00:32;;;;;;;6.38;1.10;;;4.00;99.90;;;;;;5032748;23;20053;-89
2021/12/02 01:03:28;;;;;;;9.32;1.23;;;4.00;99.90;;;;;;5047305;28;20055;-89
2021/12/02 01:12:05;;;;;;;7.13;1.08;;;4.10;99.90;;;;;;5038107;22;20064;-87
2021/12/02 01:15:01;;;;;;;4.68;1.50;;;4.10;99.90;;;;;;5008940;28;20054;-88
2021/12/02 01:17:34;;;;;;;6.20;1.05;;;4.00;99.90;;;;;;5195538;22;20069;-94
2021/12/02 01:20:08;;;;;;;4.07;0.88;;;3.80;99.90;;;;;;4990863;28;20046;-96
2021/12/02 01:22:39;;;;;;;8.57;1.90;;;3.70;99.90;;;;;;5007325;28;20041;-96
2021/12/02 01:25:19;;;;;;;3.05;0.80;;;3.60;99.90;;;;;;5007489;28;20034;-96
2021/12/02 01:28:09;;;;;;;3.50;0.77;;;3.50;99.90;;;;;;4992813;28;20034;-96
2021/12/02 01:30:43;;;;;;;4.20;0.82;;;3.50;99.90;;;;;;5005912;28;20037;-95
2021/12/02 01:33:20;;;;;;;4.60;1.17;;;3.40;99.90;;;;;;4991448;28;20065;-96
2021/12/02 01:36:00;;;;;;;4.30;0.90;;;3.30;99.90;;;;;;4992099;28;20129;-94
2021/12/02 01:38:34;;;;;;;3.55;0.65;;;3.30;99.90;;;;;;5006568;28;20041;-94
2021/12/02 01:41:03;;;;;;;2.58;0.60;;;3.20;99.90;;;;;;4990503;28;20042;-95
2021/12/02 01:44:18;;;;;;;3.08;1.10;;;3.10;99.90;;;;;;4977138;28;20053;-95
2021/12/02 01:46:58;;;;;;;4.55;0.82;;;3.10;99.90;;;;;;5029767;28;20057;-95
2021/12/02 01:49:54;;;;;;;2.10;0.75;;;3.20;99.90;;;;;;5005679;28;20030;-96
2021/12/02 01:52:30;;;;;;;2.85;0.98;;;3.30;99.90;;;;;;5002573;28;20430;-92
2021/12/02 01:55:13;;;;;;;1.52;0.80;;;3.40;99.90;;;;;;5003309;28;20410;-93
2021/12/02 01:57:46;;;;;;;3.20;0.82;;;3.50;99.90;;;;;;5000680;28;20478;-92
2021/12/02 02:00:23;;;;;;;;;;;3.50;99.90;;;;;;4986204;28;20042;-91
2021/12/02 02:02:50;;;;;;;4.78;1.08;;;3.60;99.90;;;;;;5001388;28;20349;-91
2021/12/02 02:05:18;;;;;;;6.38;1.08;;;3.60;99.90;;;;;;5000435;28;20056;-91
2021/12/02 02:08:10;;;;;;;3.47;1.25;;;3.60;99.90;;;;;;5001636;28;20041;-89
2021/12/02 02:10:39;;;;;;;3.08;0.93;;;3.70;99.90;;;;;;5022495;28;20057;-90
2021/12/02 02:13:10;;;;;;;4.93;1.08;;;3.70;99.90;;;;;;5019033;28;20033;-91
2021/12/02 02:15:54;;;;;;;4.75;1.02;;;3.70;99.90;;;;;;5015649;28;20022;-92
2021/12/02 02:18:21;;;;;;;3.50;1.00;;;3.60;99.90;;;;;;4990801;28;20054;-92
2021/12/02 02:23:29;;;;;;;4.85;1.00;;;3.50;99.90;;;;;;5038922;28;20091;-92
2021/12/02 02:26:02;;;;;;;2.63;0.65;;;3.50;99.90;;;;;;5023444;28;20045;-92
2021/12/02 02:28:30;;;;;;;4.30;0.93;;;3.50;99.90;;;;;;5040502;28;20069;-92
2021/12/02 02:30:58;;;;;;;5.05;1.00;;;3.40;99.90;;;;;;5023333;28;20045;-92
2021/12/02 02:33:35;;;;;;;3.60;0.93;;;3.40;99.90;;;;;;5040155;28;20025;-92
2021/12/02 02:36:05;;;;;;;4.80;1.10;;;3.30;99.90;;;;;;5015274;28;20040;-92
2021/12/02 02:38:32;;;;;;;3.20;1.33;;;3.30;99.90;;;;;;5018393;28;20069;-93
2021/12/02 02:41:00;;;;;;;3.55;0.93;;;3.30;99.90;;;;;;5019431;28;20041;-92
2021/12/02 02:43:27;;;;;;;4.38;1.23;;;3.30;99.90;;;;;;5041093;28;20017;-93
2021/12/02 02:45:55;;;;;;;3.10;1.00;;;3.30;99.90;;;;;;5040436;28;20017;-92
2021/12/02 02:48:21;;;;;;;2.25;1.10;;;3.40;99.90;;;;;;5039714;28;20040;-92
2021/12/02 02:50:48;;;;;;;2.92;1.15;;;3.40;99.90;;;;;;5019359;28;20037;-92
2021/12/02 02:53:25;;;;;;;2.47;0.98;;;3.40;99.90;;;;;;5025527;28;20048;-93
2021/12/02 02:56:09;;;;;;;1.85;0.85;;;3.50;99.90;;;;;;5021482;28;20053;-92
2021/12/02 03:01:33;;;;;;;2.53;0.73;;;3.50;99.90;;;;;;5039330;28;20168;-92
2021/12/02 03:09:23;;;;;;;3.85;1.00;;;3.50;99.90;;;;;;5030961;28;20060;-92
2021/12/02 03:11:55;;;;;;;1.70;0.60;;;3.60;99.90;;;;;;5006240;28;20477;-91
2021/12/02 03:14:32;;;;;;;4.80;0.47;;;3.60;99.90;;;;;;5020895;28;20030;-91
2021/12/02 03:16:57;;;;;;;2.70;0.60;;;3.60;99.90;;;;;;5006070;28;20377;-92
2021/12/02 03:19:26;;;;;;;1.95;0.40;;;3.60;99.90;;;;;;5037465;28;20053;-92
2021/12/02 03:21:56;;;;;;;1.17;0.40;;;3.60;99.90;;;;;;5020315;28;20048;-92
2021/12/02 03:24:25;;;;;;;1.75;0.30;;;3.60;99.90;;;;;;5021597;28;20033;-93
2021/12/02 03:26:57;;;;;;;0.95;0.40;;;3.60;99.90;;;;;;5039772;28;20029;-91
2021/12/02 03:29:26;;;;;;;7.05;0.50;;;3.60;99.90;;;;;;5023926;28;20045;-93
2021/12/02 03:31:51;;;;;;;3.50;0.43;;;3.60;99.90;;;;;;5009184;28;20136;-92
2021/12/02 03:34:26;;;;;;;4.30;0.77;;;3.60;99.90;;;;;;5042881;28;20018;-92
2021/12/02 03:37:02;;;;;;;3.88;0.50;;;3.60;99.90;;;;;;5030776;28;20022;-92
2021/12/02 03:39:29;;;;;;;3.30;0.40;;;3.50;99.90;;;;;;5008313;28;20040;-92
2021/12/02 03:41:59;;;;;;;2.35;0.50;;;3.50;99.90;;;;;;5023112;28;20030;-91
2021/12/02 03:44:25;;;;;;;2.45;0.55;;;3.50;99.90;;;;;;5024374;28;20024;-91
2021/12/02 03:46:59;;;;;;;5.55;0.60;;;3.40;99.90;;;;;;5023673;28;20057;-92
2021/12/02 03:49:28;;;;;;;;;;;3.40;99.90;;;;;;5008974;28;20111;-91
2021/12/02 03:51:57;;;;;;;4.07;0.50;;;3.40;99.90;;;;;;5040611;28;19900;-92
2021/12/02 03:54:23;;;;;;;1.90;0.47;;;3.40;99.90;;;;;;5042792;28;20049;-91
2021/12/02 03:56:53;;;;;;;4.47;0.40;;;3.50;99.90;;;;;;5041176;28;20044;-90
2021/12/02 03:59:20;;;;;;;4.82;0.40;;;3.40;99.90;;;;;;5037660;28;20038;-90
2021/12/02 04:01:53;;;;;;;0.88;0.30;;;3.40;99.90;;;;;;5039981;28;20052;-90
2021/12/02 04:04:20;;;;;;;0.82;0.20;;;3.40;99.90;;;;;;5022708;28;20060;-90
2021/12/02 04:06:45;;;;;;;2.53;0.30;;;3.40;99.90;;;;;;5023032;28;20033;-90
2021/12/02 04:09:19;;;;;;;1.38;0.20;;;3.30;99.90;;;;;;5022532;28;20033;-91
2021/12/02 04:11:57;;;;;;;2.05;0.20;;;3.30;99.90;;;;;;5040553;28;20323;-92
2021/12/02 04:14:50;;;;;;;2.15;0.30;;;3.30;99.90;;;;;;5023357;28;20032;-91
2021/12/02 04:17:29;;;;;;;2.17;0.40;;;3.30;99.90;;;;;;5040191;28;20037;-90
2021/12/02 04:19:57;;;;;;;0.65;0.25;;;3.30;99.90;;;;;;5020989;28;20151;-91
2021/12/02 04:22:30;;;;;;;0.80;0.10;;;3.20;99.90;;;;;;5005647;28;20069;-91
2021/12/02 04:25:06;;;;;;;2.38;0.40;;;3.20;99.90;;;;;;5039679;28;20028;-91
2021/12/02 04:27:38;;;;;;;2.22;0.30;;;3.20;99.90;;;;;;5007239;28;20050;-90
2021/12/02 04:30:09;;;;;;;1.38;0.20;;;3.20;99.90;;;;;;5040481;28;20045;-91
2021/12/02 04:32:35;;;;;;;4.72;0.93;;;3.20;99.90;;;;;;5043851;28;20017;-91
2021/12/02 04:35:09;;;;;;;1.42;0.30;;;3.20;99.90;;;;;;5042390;28;20109;-92
2021/12/02 04:37:35;;;;;;;1.95;0.20;;;3.20;99.90;;;;;;5034207;28;20064;-92
2021/12/02 04:40:01;;;;;;;0.88;0.50;;;3.20;99.90;;;;;;5041900;28;20374;-91
2021/12/02 04:42:33;;;;;;;1.65;0.60;;;3.10;99.90;;;;;;5023786;28;20031;-91
2021/12/02 04:45:02;;;;;;;2.63;0.60;;;3.10;99.90;;;;;;5023388;28;20033;-90
2021/12/02 04:47:38;;;;;;;4.03;0.70;;;3.00;99.90;;;;;;5023661;28;20033;-92
2021/12/02 04:50:09;;;;;;;2.92;0.77;;;3.00;99.90;;;;;;5024381;28;20064;-92
2021/12/02 04:52:51;;;;;;;;;;;;;;;;;;;;;
2021/12/02 04:55:18;;;;;;;2.55;0.70;;;3.00;99.90;;;;;;5026826;28;20089;-92
2021/12/02 04:57:44;;;;;;;4.55;0.85;;;3.10;99.90;;;;;;5007652;28;20508;-94
2021/12/02 05:00:10;;;;;;;2.13;0.75;;;3.10;99.90;;;;;;5023566;28;20037;-94
2021/12/02 05:02:40;;;;;;;2.50;0.80;;;3.10;99.90;;;;;;5040556;28;20025;-94
2021/12/02 05:05:15;;;;;;;4.40;1.00;;;3.10;99.90;;;;;;5041076;28;20096;-91
2021/12/02 05:07:44;;;;;;;4.50;1.40;;;3.10;99.90;;;;;;5022766;28;20053;-92
2021/12/02 05:10:10;;;;;;;2.55;0.95;;;3.10;99.90;;;;;;4992095;28;20049;-94
2021/12/02 05:12:36;;;;;;;4.07;0.90;;;3.10;99.90;;;;;;5021570;28;20037;-92
2021/12/02 05:15:03;;;;;;;3.28;1.05;;;3.10;99.90;;;;;;5021077;28;20042;-90
2021/12/02 05:17:31;;;;;;;3.20;1.20;;;3.10;99.90;;;;;;5039205;28;20030;-92
2021/12/02 05:20:05;;;;;;;3.83;1.33;;;3.00;99.90;;;;;;4985279;28;20056;-91
2021/12/02 05:22:33;;;;;;;5.30;1.45;;;3.10;99.90;;;;;;4998685;28;20042;-92
2021/12/02 05:25:00;;;;;;;5.05;1.30;;;3.20;99.90;;;;;;4998969;28;20030;-92
2021/12/02 05:27:26;;;;;;;6.30;1.30;;;3.20;99.90;;;;;;4999117;28;20125;-92
2021/12/02 05:29:54;;;;;;;3.97;1.15;;;3.30;99.90;;;;;;4999894;28;20113;-93
2021/12/02 05:32:20;;;;;;;5.10;1.27;;;3.20;99.90;;;;;;4999260;28;20022;-92
2021/12/02 05:34:49;;;;;;;4.70;1.33;;;3.30;99.90;;;;;;5000613;28;20017;-93
2021/12/02 05:37:24;;;;;;;4.63;1.35;;;3.30;99.90;;;;;;4982548;28;20461;-92
2021/12/02 05:39:51;;;;;;;3.90;1.08;;;3.20;99.90;;;;;;5007870;28;20038;-93
2021/12/02 05:42:20;;;;;;;4.32;1.00;;;3.20;99.90;;;;;;4999095;28;20065;-93
2021/12/02 05:45:20;;;;;;;4.07;1.23;;;3.20;99.90;;;;;;5001921;28;20093;-91
2021/12/02 05:47:45;;;;;;;5.28;1.90;;;3.20;99.90;;;;;;4993445;28;20125;-94
2021/12/02 05:50:12;;;;;;;3.10;1.13;;;3.10;99.90;;;;;;5000220;28;20124;-93
2021/12/02 05:52:45;;;;;;;5.43;0.70;;;3.10;99.90;;;;;;4999651;28;20027;-94
2021/12/02 05:55:13;;;;;;;2.15;0.70;;;3.10;99.90;;;;;;4983064;28;20046;-94
2021/12/02 05:57:48;;;;;;;3.47;0.70;;;2.90;99.90;;;;;;4996560;28;20041;-92
2021/12/02 06:00:17;;;;;;;1.30;0.52;;;2.90;99.90;;;;;;4985496;28;20054;-92
2021/12/02 06:03:07;;;;;;;1.52;0.50;;;2.70;99.90;;;;;;4999744;28;20390;-93
2021/12/02 06:06:22;;;;;;;0.73;0.40;;;2.70;99.90;;;;;;4999587;28;20034;-93
2021/12/02 06:09:03;;;;;;;3.42;0.75;;;2.60;99.90;;;;;;4998914;28;20044;-91
2021/12/02 06:11:31;;;;;;;1.77;0.40;;;2.50;99.90;;;;;;4998001;28;20053;-93
2021/12/02 06:14:14;;;;;;;1.40;0.40;;;2.50;99.90;;;;;;4997698;28;20030;-95
2021/12/02 06:16:43;;;;;;;2.20;0.32;;;2.50;99.90;;;;;;4995083;28;20026;-93
2021/12/02 06:19:31;;;;;;;2.47;0.40;;;2.60;99.90;;;;;;4987089;28;20058;-92
2021/12/02 06:21:57;;;;;;;2.42;0.63;;;2.60;99.90;;;;;;5003402;28;20041;-94
2021/12/02 06:24:41;;;;;;;2.13;0.50;;;2.60;99.90;;;;;;5028453;28;20033;-93
2021/12/02 06:27:10;;;;;;;2.83;0.50;;;2.60;99.90;;;;;;5021747;28;20029;-93
2021/12/02 06:29:42;;;;;;;1.45;0.57;;;2.70;99.90;;;;;;5018472;28;20187;-94
2021/12/02 06:32:10;;;;;;;2.90;0.70;;;2.70;99.90;;;;;;5001374;28;20105;-94
2021/12/02 06:34:37;;;;;;;1.70;0.68;;;2.80;99.90;;;;;;4999535;28;20436;-92
2021/12/02 06:37:09;;;;;;;2.35;0.80;;;2.70;99.90;;;;;;4997031;28;20482;-94
2021/12/02 06:39:44;;;;;;;2.95;0.80;;;2.60;99.90;;;;;;4993945;28;20478;-94
2021/12/02 06:42:17;;;;;;;1.65;0.70;;;2.60;99.90;;;;;;5021310;28;20037;-94
2021/12/02 06:45:07;;;;;;;3.33;0.70;;;2.50;99.90;;;;;;5038739;28;20504;-94
2021/12/02 06:47:40;;;;;;;1.70;1.08;;;2.50;99.90;;;;;;5026859;28;20093;-95
2021/12/02 06:50:18;;;;;;;3.33;0.65;;;2.40;99.90;;;;;;5019706;28;20018;-94
2021/12/02 06:53:29;;;;;;;3.67;0.60;;;2.50;99.90;;;;;;5017873;28;20450;-93
2021/12/02 06:55:59;;;;;;;3.45;0.80;;;2.40;99.90;;;;;;5018242;28;20098;-94
2021/12/02 06:58:30;;;;;;;4.03;1.08;;;2.30;99.90;;;;;;4996445;28;20037;-94
2021/12/02 07:01:21;;;;;;;4.65;0.90;;;2.30;99.90;;;;;;5017323;28;20042;-95
2021/12/02 07:03:56;;;;;;;1.77;0.70;;;2.30;99.90;;;;;;5029873;28;20030;-94
2021/12/02 07:06:51;;;;;;;4.15;0.63;;;2.20;99.90;;;;;;5016821;28;20109;-94
2021/12/02 07:09:41;;;;;;;2.22;0.60;;;2.10;99.90;;;;;;5000208;28;20029;-93
2021/12/02 07:12:20;;;;;;;1.63;0.70;;;2.10;99.90;;;;;;5015871;28;20083;-94
2021/12/02 07:16:15;;;;;;;1.95;0.65;;;2.00;99.90;;;;;;5000976;28;20121;-94
2021/12/02 07:18:57;;;;;;;;;;;;;;;;;;;;;
2021/12/02 07:21:51;;;;;;;3.60;1.20;;;1.90;99.90;;;;;;5015122;28;20113;-96
2021/12/02 07:25:28;;;;;;;;;;;;;;;;;;;;;
2021/12/02 07:28:38;;;;;;;;;;;;;;;;;;;;;
2021/12/02 07:31:39;;;;;;;3.17;1.10;;;2.00;99.90;;;;;;5006435;28;20116;-94
2021/12/02 07:34:56;;;;;;;3.90;1.50;;;2.00;99.90;;;;;;5009574;28;20023;-92
2021/12/02 07:38:14;;;;;;;4.35;1.40;;;2.10;99.90;;;;;;4995677;28;20055;-94
2021/12/02 07:41:15;;;;;;;5.07;1.80;;;2.10;99.90;;;;;;5017023;28;20053;-95
2021/12/02 07:44:22;;;;;;;;;;;;;;;;;;;;;
2021/12/02 07:47:21;;;;;;;;;;;;;;;;;;;;;
2021/12/02 07:50:36;;;;;;;;;;;;;;;;;;;;;
2021/12/02 07:54:04;;;;;;;6.85;2.40;;;2.00;99.90;;;;;;5025074;28;20124;-94
2021/12/02 07:57:05;;;;;;;3.92;1.95;;;2.00;99.90;;;;;;5017409;28;20042;-94
2021/12/02 08:07:22;;;;;;;7.15;3.65;;;2.30;99.90;;;;;;4960631;29;20023;-92
2021/12/02 08:13:50;;;;;;;7.68;3.22;;;2.60;99.90;;;;;;4937221;29;20032;-95
2021/12/02 08:20:03;;;;;;;5.93;3.45;;;2.80;99.90;;;;;;4947861;29;20087;-95
2021/12/02 08:23:13;;;;;;;;;;;;;;;;;;;;;
2021/12/02 08:25:54;;;;;;;8.07;3.50;;;2.90;99.90;;;;;;4886268;29;20068;-93
2021/12/02 08:28:37;;;;;;;9.23;3.55;;;3.00;99.90;;;;;;4932922;29;20038;-93
2021/12/02 08:31:19;;;;;;;9.05;3.85;;;3.00;99.90;;;;;;4919857;29;20028;-95
2021/12/02 08:38:45;;;;;;;9.68;3.92;;;3.00;99.90;;;;;;4916079;29;20100;-93
2021/12/02 08:41:45;;;;;;;8.77;3.75;;;3.00;99.90;;;;;;4924990;29;20043;-94
2021/12/02 08:51:44;;;;;;;;;;;;;;;;;;;;;
2021/12/02 08:55:06;;;;;;;7.50;3.25;;;3.10;99.90;;;;;;4925633;29;20119;-93
2021/12/02 09:01:03;;;;;;;;;;;;;;;;;;;;;
2021/12/02 09:04:23;;;;;;;;;;;;;;;;;;;;;
2021/12/02 09:07:00;;;;;;;7.40;2.83;;;3.90;99.90;;;;;;4961472;29;20114;-94
2021/12/02 09:13:03;;;;;;;;;;;;;;;;;;;;;
2021/12/02 09:18:57;;;;;;;;;;;;;;;;;;;;;
2021/12/02 09:25:20;;;;;;;;;;;;;;;;;;;;;
2021/12/02 09:32:13;;;;;;;;;;;;;;;;;;;;;
2021/12/02 09:35:28;;;;;;;4.85;1.85;;;3.70;99.90;;;;;;4926841;29;20464;-94
2021/12/02 09:38:05;;;;;;;3.63;1.83;;;3.70;99.90;;;;;;4921415;29;20028;-92
2021/12/02 09:41:15;;;;;;;5.97;2.05;;;3.80;99.90;;;;;;4926373;29;20047;-93
2021/12/02 09:44:32;;;;;;;3.55;1.73;;;4.10;99.90;;;;;;4896316;29;20469;-93
2021/12/02 09:47:45;;;;;;;;;;;;;;;;;;;;;
2021/12/02 09:50:54;;;;;;;4.50;1.98;;;6.00;99.90;;;;;;4908723;29;20084;-94
2021/12/02 09:54:28;;;;;;;3.53;1.10;;;6.60;99.90;;;;;;4868674;29;20033;-94
2021/12/02 10:18:47;;;;;;;;;;;;;;;;;;;;;
2021/12/02 10:28:14;;;;;;;3.67;1.00;;;5.30;99.90;;;;;;5041390;22;20076;-83
2021/12/02 10:31:09;;;;;;;2.55;0.88;;;5.30;99.90;;;;;;5082883;23;20053;-83
2021/12/02 10:36:31;;;;;;;2.60;0.80;;;4.60;99.90;;;;;;4986995;28;20051;-88
2021/12/02 10:39:12;;;;;;;4.63;1.15;;;4.40;99.90;;;;;;4969673;28;20049;-89
2021/12/02 10:41:42;;;;;;;2.75;1.02;;;4.30;99.90;;;;;;4968009;28;20039;-83
2021/12/02 10:44:51;;;;;;;3.08;0.88;;;4.20;99.90;;;;;;4997871;23;20039;-83
2021/12/02 10:47:26;;;;;;;2.30;1.10;;;4.20;99.90;;;;;;5109241;23;20123;-84
2021/12/02 10:50:40;;;;;;;2.50;0.70;;;4.10;99.90;;;;;;5023085;23;20049;-83
2021/12/02 10:59:44;;;;;;;2.80;1.17;;;4.80;99.90;;;;;;5422632;22;20049;-84
2021/12/02 11:02:53;;;;;;;3.22;1.00;;;5.30;99.90;;;;;;5024849;23;20125;-84
2021/12/02 11:05:34;;;;;;;3.17;0.88;;;5.40;99.90;;;;;;5082792;23;20046;-84
2021/12/02 11:08:10;;;;;;;2.40;0.90;;;5.40;99.90;;;;;;5008980;28;20042;-83
2021/12/02 11:11:13;;;;;;;2.05;0.95;;;5.40;99.90;;;;;;5010800;28;20042;-84
2021/12/02 11:14:28;;;;;;;2.85;1.15;;;5.30;99.90;;;;;;5010302;28;20030;-84
2021/12/02 11:17:11;;;;;;;2.05;0.85;;;5.50;99.90;;;;;;4980844;28;20042;-85
2021/12/02 11:19:46;;;;;;;2.22;0.90;;;5.70;99.90;;;;;;5016053;23;20042;-84
2021/12/02 11:22:29;;;;;;;1.33;0.68;;;5.70;99.90;;;;;;5092212;23;20072;-83
2021/12/02 11:24:56;;;;;;;2.30;0.80;;;5.70;99.90;;;;;;5007220;28;20033;-86
2021/12/02 11:30:29;;;;;;;1.40;0.50;;;5.90;99.90;;;;;;5028637;28;20049;-87
2021/12/02 11:33:31;;;;;;;4.35;1.00;;;5.80;99.90;;;;;;5029812;28;20034;-85
2021/12/02 11:36:01;;;;;;;2.10;0.60;;;5.70;99.90;;;;;;5003154;28;20034;-85
2021/12/02 11:38:30;;;;;;;2.13;0.80;;;5.70;99.90;;;;;;5009597;28;20034;-87
2021/12/02 11:41:17;;;;;;;1.10;0.68;;;5.70;99.90;;;;;;5061320;23;20072;-88
2021/12/02 11:43:45;;;;;;;2.75;0.93;;;5.60;99.90;;;;;;5046594;28;20034;-86
2021/12/02 11:46:12;;;;;;;3.28;0.57;;;5.50;99.90;;;;;;5032448;28;20100;-86
2021/12/02 11:54:37;;;;;;;;;;;5.50;99.90;;;;;;5050864;28;20079;-86
2021/12/02 11:57:33;;;;;;;1.73;0.70;;;5.40;99.90;;;;;;5118852;23;19907;-85
2021/12/02 12:00:20;;;;;;;1.58;0.60;;;5.50;99.90;;;;;;5068712;22;20076;-86
2021/12/02 12:07:21;;;;;;;1.88;0.93;;;5.40;99.90;;;;;;5044260;28;20123;-86
2021/12/02 12:10:38;;;;;;;2.67;0.60;;;5.50;99.90;;;;;;5053578;28;20056;-87
2021/12/02 12:17:04;;;;;;;0.63;0.40;;;5.60;99.90;;;;;;5058302;28;20068;-86
2021/12/02 12:19:44;;;;;;;1.25;0.38;;;5.50;99.90;;;;;;5090585;23;20069;-87
2021/12/02 12:22:35;;;;;;;0.30;0.28;;;5.40;99.90;;;;;;4984403;28;20038;-86
2021/12/02 12:25:06;;;;;;;0.75;0.38;;;5.30;99.90;;;;;;5038639;28;20038;-89
2021/12/02 12:27:35;;;;;;;0.95;0.40;;;5.20;99.90;;;;;;5023488;28;20094;-88
2021/12/02 12:30:09;;;;;;;1.67;0.30;;;5.10;99.90;;;;;;5022815;28;20038;-88
2021/12/02 12:33:09;;;;;;;0.85;0.30;;;5.00;99.90;;;;;;5131538;23;20041;-89
2021/12/02 12:36:13;;;;;;;1.20;0.50;;;5.00;99.90;;;;;;5062014;28;20025;-86
2021/12/02 12:39:40;;;;;;;0.90;0.65;;;4.90;99.90;;;;;;5053339;28;20017;-86
2021/12/02 12:42:51;;;;;;;0.68;0.40;;;4.90;99.90;;;;;;5028257;28;20046;-86
2021/12/02 12:46:10;;;;;;;0.88;0.32;;;5.00;99.90;;;;;;5070134;23;20101;-84
2021/12/02 12:48:37;;;;;;;0.40;0.30;;;5.00;99.90;;;;;;5054958;28;20078;-88
2021/12/02 12:51:42;;;;;;;0.35;0.30;;;5.00;99.90;;;;;;5067813;28;20045;-85
2021/12/02 12:54:20;;;;;;;0.45;0.30;;;5.00;99.90;;;;;;5050050;28;20029;-87
2021/12/02 12:57:16;;;;;;;0.73;0.30;;;5.00;99.90;;;;;;5052166;28;20071;-86
2021/12/02 13:00:03;;;;;;;1.27;0.57;;;4.90;99.90;;;;;;5088168;28;20033;-87
2021/12/02 13:02:54;;;;;;;0.98;0.40;;;4.80;99.90;;;;;;5087935;28;20036;-86
2021/12/02 13:05:47;;;;;;;2.55;0.50;;;4.70;99.90;;;;;;5046758;28;20037;-87
2021/12/02 13:08:19;;;;;;;1.43;0.50;;;4.60;99.90;;;;;;5039159;28;20056;-85
2021/12/02 13:11:21;;;;;;;2.15;0.43;;;4.60;99.90;;;;;;5067456;28;20267;-86
2021/12/02 13:14:13;;;;;;;1.80;0.60;;;4.60;99.90;;;;;;5037783;28;20128;-86
2021/12/02 13:16:46;;;;;;;1.90;0.60;;;4.60;99.90;;;;;;5058600;28;20041;-86
2021/12/02 13:19:17;;;;;;;1.58;0.68;;;4.80;99.90;;;;;;5086240;28;20071;-86
2021/12/02 13:21:45;;;;;;;2.13;0.70;;;5.60;99.90;;;;;;5050726;28;20053;-85
2021/12/02 13:24:22;;;;;;;1.48;0.60;;;6.70;99.90;;;;;;5068613;28;20029;-85
2021/12/02 13:26:55;;;;;;;1.13;0.73;;;7.40;99.90;;;;;;5068828;28;20733;-88
2021/12/02 13:29:28;;;;;;;2.75;0.80;;;7.20;99.90;;;;;;5068045;28;20037;-87
2021/12/02 13:31:58;;;;;;;2.33;0.63;;;6.70;99.90;;;;;;5070790;28;20032;-88
2021/12/02 13:35:02;;;;;;;1.58;0.70;;;6.20;99.90;;;;;;5067062;28;20066;-87
2021/12/02 13:37:28;;;;;;;1.55;0.80;;;5.70;99.90;;;;;;5069729;28;20028;-87
2021/12/02 13:39:57;;;;;;;1.25;0.63;;;5.40;99.90;;;;;;5068975;28;20054;-89
2021/12/02 13:42:34;;;;;;;1.48;1.13;;;5.30;99.90;;;;;;5052424;28;20041;-87
2021/12/02 13:45:01;;;;;;;2.92;0.80;;;5.20;99.90;;;;;;5070800;28;20045;-89
2021/12/02 13:47:35;;;;;;;2.78;0.70;;;5.00;99.90;;;;;;5054265;28;20060;-87
2021/12/02 13:50:06;;;;;;;1.17;0.60;;;4.90;99.90;;;;;;5088142;28;20032;-86
2021/12/02 13:53:11;;;;;;;2.13;0.70;;;4.90;99.90;;;;;;5086715;28;20020;-87
2021/12/02 13:55:47;;;;;;;2.35;0.73;;;4.90;99.90;;;;;;5081493;28;20037;-87
2021/12/02 13:58:36;;;;;;;1.73;0.70;;;4.90;99.90;;;;;;5073234;28;20037;-88
2021/12/02 14:01:04;;;;;;;2.60;0.68;;;5.00;99.90;;;;;;5087800;28;20041;-89
2021/12/02 14:03:30;;;;;;;4.18;0.90;;;5.00;99.90;;;;;;5045654;28;20044;-88
2021/12/02 14:05:59;;;;;;;1.58;1.05;;;5.00;99.90;;;;;;5047481;28;20030;-90
2021/12/02 14:08:26;;;;;;;3.65;0.77;;;4.80;99.90;;;;;;5082122;28;20040;-90
2021/12/02 14:10:55;;;;;;;1.42;0.68;;;4.80;99.90;;;;;;5187709;22;20024;-87
2021/12/02 14:13:36;;;;;;;2.20;0.90;;;4.70;99.90;;;;;;4991875;28;20050;-88
2021/12/02 14:16:06;;;;;;;2.60;0.80;;;4.60;99.90;;;;;;5020709;28;20046;-89
2021/12/02 14:18:39;;;;;;;3.00;0.70;;;4.60;99.90;;;;;;5101209;23;20127;-86
2021/12/02 14:21:26;;;;;;;1.65;0.60;;;4.50;99.90;;;;;;5048853;28;20100;-87
2021/12/02 14:24:09;;;;;;;2.25;1.02;;;4.50;99.90;;;;;;5052063;28;20460;-89
2021/12/02 14:26:35;;;;;;;2.53;0.93;;;4.50;99.90;;;;;;5030522;23;20054;-92
2021/12/02 14:29:01;;;;;;;3.75;0.98;;;4.40;99.90;;;;;;5017462;28;20037;-90
2021/12/02 14:31:36;;;;;;;2.83;0.90;;;4.40;99.90;;;;;;5033874;28;20040;-90
2021/12/02 14:34:10;;;;;;;2.00;0.80;;;4.30;99.90;;;;;;5034856;28;20034;-89
2021/12/02 14:36:57;;;;;;;2.95;0.98;;;4.30;99.90;;;;;;5046172;28;20042;-85
2021/12/02 14:42:22;;;;;;;3.45;0.90;;;4.20;99.90;;;;;;5568590;22;20064;-85
2021/12/02 14:45:26;;;;;;;3.20;1.00;;;4.20;99.90;;;;;;5035709;23;20060;-85
2021/12/02 14:48:01;;;;;;;3.72;1.20;;;4.10;99.90;;;;;;5161652;23;20012;-85
2021/12/02 14:50:31;;;;;;;2.65;0.98;;;4.10;99.90;;;;;;5050240;23;20048;-85
2021/12/02 14:52:58;;;;;;;3.70;1.35;;;4.10;99.90;;;;;;5067715;28;20052;-86
2021/12/02 14:55:42;;;;;;;3.50;1.10;;;4.00;99.90;;;;;;5061143;28;20053;-85
2021/12/02 14:58:15;;;;;;;1.70;1.00;;;3.90;99.90;;;;;;5072149;28;20029;-87
2021/12/02 15:00:45;;;;;;;3.17;1.10;;;3.90;99.90;;;;;;5069024;22;20047;-88
2021/12/02 15:03:27;;;;;;;2.33;0.98;;;3.90;99.90;;;;;;5043078;23;20136;-84
2021/12/02 15:06:24;;;;;;;4.25;1.58;;;3.90;99.90;;;;;;5025957;23;20046;-86
2021/12/02 15:08:49;;;;;;;1.85;0.90;;;3.80;99.90;;;;;;4985439;28;20090;-87
2021/12/02 15:11:25;;;;;;;6.35;1.20;;;3.80;99.90;;;;;;4995024;28;20023;-85
2021/12/02 15:13:51;;;;;;;3.00;1.40;;;3.70;99.90;;;;;;4984614;28;20049;-88
2021/12/02 15:16:17;;;;;;;2.63;1.20;;;3.70;99.90;;;;;;4983315;28;20035;-86
2021/12/02 15:18:43;;;;;;;2.97;1.33;;;3.60;99.90;;;;;;5022413;23;20088;-85
2021/12/02 15:21:12;;;;;;;3.70;1.30;;;3.60;99.90;;;;;;5034175;28;20141;-86
2021/12/02 15:23:40;;;;;;;3.33;1.20;;;3.50;99.90;;;;;;5021610;28;20037;-85
2021/12/02 15:26:13;;;;;;;4.10;1.30;;;3.50;99.90;;;;;;5056579;23;20107;-85
2021/12/02 15:28:52;;;;;;;3.95;1.52;;;3.50;99.90;;;;;;5051128;23;20049;-85
2021/12/02 15:31:31;;;;;;;3.92;1.60;;;3.50;99.90;;;;;;5043432;28;20096;-87
2021/12/02 15:34:00;;;;;;;4.00;1.40;;;3.40;99.90;;;;;;5058399;28;20040;-85
2021/12/02 15:36:29;;;;;;;2.10;1.38;;;3.30;99.90;;;;;;5039703;28;20394;-90
2021/12/02 15:38:58;;;;;;;2.28;1.15;;;3.30;99.90;;;;;;5041810;28;20096;-86
2021/12/02 15:41:27;;;;;;;4.20;1.50;;;3.20;99.90;;;;;;5025695;23;20065;-88
2021/12/02 15:44:02;;;;;;;2.08;1.20;;;3.20;99.90;;;;;;5017684;28;20105;-88
2021/12/02 15:46:36;;;;;;;2.83;1.60;;;3.10;99.90;;;;;;5006679;28;20104;-88
2021/12/02 15:49:05;;;;;;;4.50;1.63;;;3.10;99.90;;;;;;5020558;28;20068;-89
2021/12/02 15:51:34;;;;;;;3.03;1.60;;;3.00;99.90;;;;;;5021118;28;20034;-89
2021/12/02 15:54:03;;;;;;;2.80;1.58;;;2.90;99.90;;;;;;5023330;28;20034;-87
2021/12/02 15:56:33;;;;;;;2.65;1.52;;;2.90;99.90;;;;;;5004871;28;20073;-87
2021/12/02 15:59:47;;;;;;;5.63;1.92;;;2.80;99.90;;;;;;4979150;28;20096;-87
2021/12/02 16:07:35;;;;;;;2.72;1.70;;;2.80;99.90;;;;;;5032408;28;20080;-90
2021/12/02 16:10:16;;;;;;;3.50;1.63;;;2.70;99.90;;;;;;5004807;28;20066;-89
2021/12/02 16:12:42;;;;;;;3.22;1.50;;;2.70;99.90;;;;;;5017835;28;20053;-92
2021/12/02 16:15:17;;;;;;;3.55;1.55;;;2.60;99.90;;;;;;5019397;28;20125;-92
2021/12/02 16:17:43;;;;;;;2.50;1.50;;;2.60;99.90;;;;;;5017843;28;20140;-91
2021/12/02 16:20:14;;;;;;;5.15;2.25;;;2.60;99.90;;;;;;5001843;28;20128;-91
2021/12/02 16:22:42;;;;;;;3.20;1.70;;;2.50;99.90;;;;;;5019693;28;20893;-90
2021/12/02 16:25:09;;;;;;;4.50;1.50;;;2.50;99.90;;;;;;5028190;28;20038;-89
2021/12/02 16:27:36;;;;;;;5.03;1.77;;;2.50;99.90;;;;;;5024162;28;20038;-88
2021/12/02 16:30:04;;;;;;;5.30;2.00;;;2.50;99.90;;;;;;5022966;28;20064;-89